sensor_id;sensor_type;location;lat;lon;timestamp;P1;durP1;ratioP1;P2;durP2;ratioP2
19733;SDS011;10018;51.230;7.860;2022-10-16T00:00:37;14.23;;;7.97;;
19733;SDS011;10018;51.230;7.860;2022-10-16T00:03:04;10.10;;;6.93;;
19733;SDS011;10018;51.230;7.860;2022-10-16T00:05:30;11.23;;;6.80;;
19733;SDS011;10018;51.230;7.860;2022-10-16T00:07:56;13.43;;;8.20;;
19733;SDS011;10018;51.230;7.860;2022-10-16T00:10:21;10.80;;;7.00;;
19733;SDS011;10018;51.230;7.860;2022-10-16T00:12:47;11.27;;;7.03;;
19733;SDS011;10018;51.230;7.860;2022-10-16T00:15:13;9.97;;;6.00;;
19733;SDS011;10018;51.230;7.860;2022-10-16T00:17:38;9.67;;;5.97;;
19733;SDS011;10018;51.230;7.860;2022-10-16T00:20:04;10.50;;;6.60;;
19733;SDS011;10018;51.230;7.860;2022-10-16T00:22:30;9.73;;;6.17;;
19733;SDS011;10018;51.230;7.860;2022-10-16T00:24:56;10.93;;;6.40;;
19733;SDS011;10018;51.230;7.860;2022-10-16T00:27:21;9.87;;;6.40;;
19733;SDS011;10018;51.230;7.860;2022-10-16T00:29:50;11.30;;;6.47;;
19733;SDS011;10018;51.230;7.860;2022-10-16T00:32:17;11.30;;;6.37;;
19733;SDS011;10018;51.230;7.860;2022-10-16T00:34:43;10.20;;;6.30;;
19733;SDS011;10018;51.230;7.860;2022-10-16T00:37:09;8.40;;;5.77;;
19733;SDS011;10018;51.230;7.860;2022-10-16T00:39:35;12.30;;;6.90;;
19733;SDS011;10018;51.230;7.860;2022-10-16T00:42:00;11.17;;;6.63;;
19733;SDS011;10018;51.230;7.860;2022-10-16T00:47:15;9.63;;;5.80;;
19733;SDS011;10018;51.230;7.860;2022-10-16T00:50:04;8.47;;;5.60;;
19733;SDS011;10018;51.230;7.860;2022-10-16T00:52:57;10.07;;;6.13;;
19733;SDS011;10018;51.230;7.860;2022-10-16T00:55:25;10.53;;;5.43;;
19733;SDS011;10018;51.230;7.860;2022-10-16T00:57:52;7.13;;;5.03;;
19733;SDS011;10018;51.230;7.860;2022-10-16T01:00:20;7.73;;;5.43;;
19733;SDS011;10018;51.230;7.860;2022-10-16T01:02:51;13.00;;;6.03;;
19733;SDS011;10018;51.230;7.860;2022-10-16T01:05:19;13.93;;;5.33;;
19733;SDS011;10018;51.230;7.860;2022-10-16T01:10:48;11.67;;;4.63;;
19733;SDS011;10018;51.230;7.860;2022-10-16T01:13:24;7.23;;;4.27;;
19733;SDS011;10018;51.230;7.860;2022-10-16T01:15:55;6.87;;;4.83;;
19733;SDS011;10018;51.230;7.860;2022-10-16T01:18:31;8.50;;;4.27;;
19733;SDS011;10018;51.230;7.860;2022-10-16T01:21:10;9.50;;;4.10;;
19733;SDS011;10018;51.230;7.860;2022-10-16T01:24:06;11.17;;;3.87;;
19733;SDS011;10018;51.230;7.860;2022-10-16T01:29:42;12.63;;;3.20;;
19733;SDS011;10018;51.230;7.860;2022-10-16T01:32:17;9.37;;;2.80;;
19733;SDS011;10018;51.230;7.860;2022-10-16T01:35:41;4.57;;;2.90;;
19733;SDS011;10018;51.230;7.860;2022-10-16T01:37:58;7.03;;;3.17;;
19733;SDS011;10018;51.230;7.860;2022-10-16T01:40:28;7.20;;;3.00;;
19733;SDS011;10018;51.230;7.860;2022-10-16T01:43:03;5.87;;;3.17;;
19733;SDS011;10018;51.230;7.860;2022-10-16T01:45:32;5.07;;;2.80;;
19733;SDS011;10018;51.230;7.860;2022-10-16T01:48:00;5.23;;;2.70;;
19733;SDS011;10018;51.230;7.860;2022-10-16T01:50:33;5.00;;;2.97;;
19733;SDS011;10018;51.230;7.860;2022-10-16T01:53:02;5.00;;;2.80;;
19733;SDS011;10018;51.230;7.860;2022-10-16T01:55:31;8.87;;;2.80;;
19733;SDS011;10018;51.230;7.860;2022-10-16T01:58:00;5.43;;;2.40;;
19733;SDS011;10018;51.230;7.860;2022-10-16T02:00:27;6.47;;;2.60;;
19733;SDS011;10018;51.230;7.860;2022-10-16T02:02:55;5.67;;;2.70;;
19733;SDS011;10018;51.230;7.860;2022-10-16T02:07:51;6.57;;;2.57;;
19733;SDS011;10018;51.230;7.860;2022-10-16T02:10:17;10.57;;;2.90;;
19733;SDS011;10018;51.230;7.860;2022-10-16T02:12:57;6.70;;;2.80;;
19733;SDS011;10018;51.230;7.860;2022-10-16T02:15:36;6.37;;;3.17;;
19733;SDS011;10018;51.230;7.860;2022-10-16T02:20:29;7.77;;;2.90;;
19733;SDS011;10018;51.230;7.860;2022-10-16T02:22:59;6.07;;;2.73;;
19733;SDS011;10018;51.230;7.860;2022-10-16T02:25:29;5.27;;;2.67;;
19733;SDS011;10018;51.230;7.860;2022-10-16T02:27:57;9.13;;;2.73;;
19733;SDS011;10018;51.230;7.860;2022-10-16T02:30:39;4.97;;;2.77;;
19733;SDS011;10018;51.230;7.860;2022-10-16T02:33:09;6.03;;;2.70;;
19733;SDS011;10018;51.230;7.860;2022-10-16T02:35:38;7.40;;;2.80;;
19733;SDS011;10018;51.230;7.860;2022-10-16T02:38:06;7.30;;;2.50;;
19733;SDS011;10018;51.230;7.860;2022-10-16T02:40:33;5.10;;;2.43;;
19733;SDS011;10018;51.230;7.860;2022-10-16T02:42:59;5.93;;;2.37;;
19733;SDS011;10018;51.230;7.860;2022-10-16T02:45:25;9.47;;;2.50;;
19733;SDS011;10018;51.230;7.860;2022-10-16T02:47:50;4.57;;;2.27;;
19733;SDS011;10018;51.230;7.860;2022-10-16T02:50:16;5.60;;;2.90;;
19733;SDS011;10018;51.230;7.860;2022-10-16T02:52:41;6.73;;;2.70;;
19733;SDS011;10018;51.230;7.860;2022-10-16T02:55:07;5.07;;;2.83;;
19733;SDS011;10018;51.230;7.860;2022-10-16T02:57:33;5.03;;;3.30;;
19733;SDS011;10018;51.230;7.860;2022-10-16T02:59:58;7.47;;;3.17;;
19733;SDS011;10018;51.230;7.860;2022-10-16T03:02:24;11.17;;;2.43;;
19733;SDS011;10018;51.230;7.860;2022-10-16T03:04:50;4.50;;;2.47;;
19733;SDS011;10018;51.230;7.860;2022-10-16T03:07:16;5.70;;;3.57;;
19733;SDS011;10018;51.230;7.860;2022-10-16T03:09:41;5.80;;;3.10;;
19733;SDS011;10018;51.230;7.860;2022-10-16T03:12:07;7.43;;;3.10;;
19733;SDS011;10018;51.230;7.860;2022-10-16T03:14:33;10.07;;;3.90;;
19733;SDS011;10018;51.230;7.860;2022-10-16T03:16:59;4.67;;;2.77;;
19733;SDS011;10018;51.230;7.860;2022-10-16T03:19:25;6.43;;;3.57;;
19733;SDS011;10018;51.230;7.860;2022-10-16T03:21:50;6.17;;;3.57;;
19733;SDS011;10018;51.230;7.860;2022-10-16T03:24:16;5.97;;;3.10;;
19733;SDS011;10018;51.230;7.860;2022-10-16T03:26:41;11.43;;;3.83;;
19733;SDS011;10018;51.230;7.860;2022-10-16T03:29:07;6.07;;;4.03;;
19733;SDS011;10018;51.230;7.860;2022-10-16T03:31:32;16.00;;;4.57;;
19733;SDS011;10018;51.230;7.860;2022-10-16T03:33:58;7.07;;;4.07;;
19733;SDS011;10018;51.230;7.860;2022-10-16T03:36:23;5.10;;;3.90;;
19733;SDS011;10018;51.230;7.860;2022-10-16T03:38:49;8.47;;;4.10;;
19733;SDS011;10018;51.230;7.860;2022-10-16T03:41:15;6.27;;;3.50;;
19733;SDS011;10018;51.230;7.860;2022-10-16T03:43:40;5.73;;;3.47;;
19733;SDS011;10018;51.230;7.860;2022-10-16T03:46:06;7.93;;;3.97;;
19733;SDS011;10018;51.230;7.860;2022-10-16T03:48:31;6.43;;;3.77;;
19733;SDS011;10018;51.230;7.860;2022-10-16T03:50:57;5.67;;;3.73;;
19733;SDS011;10018;51.230;7.860;2022-10-16T03:53:23;8.07;;;3.83;;
19733;SDS011;10018;51.230;7.860;2022-10-16T03:55:48;7.30;;;3.30;;
19733;SDS011;10018;51.230;7.860;2022-10-16T03:58:14;9.70;;;4.20;;
19733;SDS011;10018;51.230;7.860;2022-10-16T04:00:40;6.53;;;3.47;;
19733;SDS011;10018;51.230;7.860;2022-10-16T04:03:10;8.43;;;4.03;;
19733;SDS011;10018;51.230;7.860;2022-10-16T04:05:36;7.83;;;4.00;;
19733;SDS011;10018;51.230;7.860;2022-10-16T04:08:01;14.80;;;4.53;;
19733;SDS011;10018;51.230;7.860;2022-10-16T04:10:27;6.43;;;4.67;;
19733;SDS011;10018;51.230;7.860;2022-10-16T04:12:53;9.53;;;5.47;;
19733;SDS011;10018;51.230;7.860;2022-10-16T04:15:22;7.27;;;5.53;;
19733;SDS011;10018;51.230;7.860;2022-10-16T04:17:48;6.43;;;4.97;;
19733;SDS011;10018;51.230;7.860;2022-10-16T04:20:13;6.17;;;5.00;;
19733;SDS011;10018;51.230;7.860;2022-10-16T04:22:39;6.90;;;5.10;;
19733;SDS011;10018;51.230;7.860;2022-10-16T04:25:04;6.63;;;5.20;;
19733;SDS011;10018;51.230;7.860;2022-10-16T04:27:30;10.03;;;5.03;;
19733;SDS011;10018;51.230;7.860;2022-10-16T04:30:00;8.60;;;5.33;;
19733;SDS011;10018;51.230;7.860;2022-10-16T04:32:26;7.27;;;4.50;;
19733;SDS011;10018;51.230;7.860;2022-10-16T04:34:51;6.60;;;4.87;;
19733;SDS011;10018;51.230;7.860;2022-10-16T04:37:17;10.13;;;5.57;;
19733;SDS011;10018;51.230;7.860;2022-10-16T04:39:43;13.60;;;4.93;;
19733;SDS011;10018;51.230;7.860;2022-10-16T04:42:09;7.53;;;4.90;;
19733;SDS011;10018;51.230;7.860;2022-10-16T04:44:35;6.80;;;4.63;;
19733;SDS011;10018;51.230;7.860;2022-10-16T04:47:00;6.03;;;4.63;;
19733;SDS011;10018;51.230;7.860;2022-10-16T04:49:26;8.50;;;5.23;;
19733;SDS011;10018;51.230;7.860;2022-10-16T04:51:51;8.70;;;4.83;;
19733;SDS011;10018;51.230;7.860;2022-10-16T04:54:17;7.53;;;5.40;;
19733;SDS011;10018;51.230;7.860;2022-10-16T04:56:42;10.57;;;5.30;;
19733;SDS011;10018;51.230;7.860;2022-10-16T04:59:12;6.07;;;5.20;;
19733;SDS011;10018;51.230;7.860;2022-10-16T05:01:41;10.93;;;5.63;;
19733;SDS011;10018;51.230;7.860;2022-10-16T05:04:06;8.57;;;5.53;;
19733;SDS011;10018;51.230;7.860;2022-10-16T05:06:32;6.90;;;5.10;;
19733;SDS011;10018;51.230;7.860;2022-10-16T05:08:57;9.20;;;5.40;;
19733;SDS011;10018;51.230;7.860;2022-10-16T05:11:23;6.43;;;5.13;;
19733;SDS011;10018;51.230;7.860;2022-10-16T05:13:48;9.73;;;5.80;;
19733;SDS011;10018;51.230;7.860;2022-10-16T05:16:14;10.70;;;5.30;;
19733;SDS011;10018;51.230;7.860;2022-10-16T05:18:39;7.30;;;5.20;;
19733;SDS011;10018;51.230;7.860;2022-10-16T05:21:04;9.17;;;5.07;;
19733;SDS011;10018;51.230;7.860;2022-10-16T05:23:31;10.63;;;5.30;;
19733;SDS011;10018;51.230;7.860;2022-10-16T05:25:56;6.93;;;4.73;;
19733;SDS011;10018;51.230;7.860;2022-10-16T05:28:27;6.80;;;4.43;;
19733;SDS011;10018;51.230;7.860;2022-10-16T05:30:53;11.87;;;4.40;;
19733;SDS011;10018;51.230;7.860;2022-10-16T05:33:19;7.23;;;4.80;;
19733;SDS011;10018;51.230;7.860;2022-10-16T05:35:45;7.50;;;5.23;;
19733;SDS011;10018;51.230;7.860;2022-10-16T05:38:11;8.73;;;4.63;;
19733;SDS011;10018;51.230;7.860;2022-10-16T05:40:37;7.70;;;4.50;;
19733;SDS011;10018;51.230;7.860;2022-10-16T05:43:02;7.87;;;4.70;;
19733;SDS011;10018;51.230;7.860;2022-10-16T05:45:28;7.03;;;4.43;;
19733;SDS011;10018;51.230;7.860;2022-10-16T05:47:53;7.17;;;5.33;;
19733;SDS011;10018;51.230;7.860;2022-10-16T05:50:19;9.03;;;4.30;;
19733;SDS011;10018;51.230;7.860;2022-10-16T05:52:44;7.50;;;4.80;;
19733;SDS011;10018;51.230;7.860;2022-10-16T05:55:10;7.53;;;5.00;;
19733;SDS011;10018;51.230;7.860;2022-10-16T05:57:35;6.40;;;4.10;;
19733;SDS011;10018;51.230;7.860;2022-10-16T06:00:01;5.07;;;3.87;;
19733;SDS011;10018;51.230;7.860;2022-10-16T06:02:27;7.57;;;4.00;;
19733;SDS011;10018;51.230;7.860;2022-10-16T06:04:52;5.30;;;3.70;;
19733;SDS011;10018;51.230;7.860;2022-10-16T06:07:18;7.60;;;4.80;;
19733;SDS011;10018;51.230;7.860;2022-10-16T06:09:47;6.83;;;4.17;;
19733;SDS011;10018;51.230;7.860;2022-10-16T06:12:14;5.07;;;3.80;;
19733;SDS011;10018;51.230;7.860;2022-10-16T06:14:39;5.40;;;3.77;;
19733;SDS011;10018;51.230;7.860;2022-10-16T06:17:05;5.70;;;3.73;;
19733;SDS011;10018;51.230;7.860;2022-10-16T06:19:30;6.47;;;3.70;;
19733;SDS011;10018;51.230;7.860;2022-10-16T06:21:56;6.10;;;4.00;;
19733;SDS011;10018;51.230;7.860;2022-10-16T06:24:22;7.53;;;3.80;;
19733;SDS011;10018;51.230;7.860;2022-10-16T06:26:48;5.63;;;3.47;;
19733;SDS011;10018;51.230;7.860;2022-10-16T06:29:14;4.93;;;3.43;;
19733;SDS011;10018;51.230;7.860;2022-10-16T06:31:39;4.43;;;3.70;;
19733;SDS011;10018;51.230;7.860;2022-10-16T06:34:05;4.70;;;3.40;;
19733;SDS011;10018;51.230;7.860;2022-10-16T06:36:34;6.77;;;4.07;;
19733;SDS011;10018;51.230;7.860;2022-10-16T06:38:59;5.10;;;3.60;;
19733;SDS011;10018;51.230;7.860;2022-10-16T06:41:25;6.23;;;3.30;;
19733;SDS011;10018;51.230;7.860;2022-10-16T06:43:51;9.83;;;3.40;;
19733;SDS011;10018;51.230;7.860;2022-10-16T06:46:18;6.73;;;4.30;;
19733;SDS011;10018;51.230;7.860;2022-10-16T06:48:46;5.97;;;4.03;;
19733;SDS011;10018;51.230;7.860;2022-10-16T06:51:12;5.00;;;3.67;;
19733;SDS011;10018;51.230;7.860;2022-10-16T06:53:43;7.13;;;3.30;;
19733;SDS011;10018;51.230;7.860;2022-10-16T06:56:14;6.17;;;3.87;;
19733;SDS011;10018;51.230;7.860;2022-10-16T06:58:41;6.17;;;3.90;;
19733;SDS011;10018;51.230;7.860;2022-10-16T07:01:07;7.10;;;3.97;;
19733;SDS011;10018;51.230;7.860;2022-10-16T07:03:35;4.00;;;3.50;;
19733;SDS011;10018;51.230;7.860;2022-10-16T07:06:03;5.40;;;3.60;;
19733;SDS011;10018;51.230;7.860;2022-10-16T07:08:33;5.43;;;3.40;;
19733;SDS011;10018;51.230;7.860;2022-10-16T07:11:00;7.37;;;3.57;;
19733;SDS011;10018;51.230;7.860;2022-10-16T07:13:26;6.73;;;4.03;;
19733;SDS011;10018;51.230;7.860;2022-10-16T07:15:51;7.53;;;4.50;;
19733;SDS011;10018;51.230;7.860;2022-10-16T07:18:17;9.50;;;4.37;;
19733;SDS011;10018;51.230;7.860;2022-10-16T07:20:43;6.10;;;3.70;;
19733;SDS011;10018;51.230;7.860;2022-10-16T07:23:08;10.27;;;3.93;;
19733;SDS011;10018;51.230;7.860;2022-10-16T07:25:34;7.40;;;3.70;;
19733;SDS011;10018;51.230;7.860;2022-10-16T07:27:59;10.53;;;3.47;;
19733;SDS011;10018;51.230;7.860;2022-10-16T07:30:25;11.50;;;3.70;;
19733;SDS011;10018;51.230;7.860;2022-10-16T07:32:50;7.57;;;3.20;;
19733;SDS011;10018;51.230;7.860;2022-10-16T07:35:16;4.13;;;2.73;;
19733;SDS011;10018;51.230;7.860;2022-10-16T07:37:44;5.87;;;2.50;;
19733;SDS011;10018;51.230;7.860;2022-10-16T07:40:10;5.50;;;2.90;;
19733;SDS011;10018;51.230;7.860;2022-10-16T07:42:36;6.33;;;2.23;;
19733;SDS011;10018;51.230;7.860;2022-10-16T07:45:02;2.63;;;2.00;;
19733;SDS011;10018;51.230;7.860;2022-10-16T07:47:27;2.40;;;1.90;;
19733;SDS011;10018;51.230;7.860;2022-10-16T07:49:53;2.97;;;1.80;;
19733;SDS011;10018;51.230;7.860;2022-10-16T07:52:18;4.23;;;1.73;;
19733;SDS011;10018;51.230;7.860;2022-10-16T07:54:44;5.50;;;2.00;;
19733;SDS011;10018;51.230;7.860;2022-10-16T07:57:09;4.20;;;1.90;;
19733;SDS011;10018;51.230;7.860;2022-10-16T07:59:35;3.80;;;1.90;;
19733;SDS011;10018;51.230;7.860;2022-10-16T08:02:00;3.83;;;1.60;;
19733;SDS011;10018;51.230;7.860;2022-10-16T08:04:26;5.00;;;1.80;;
19733;SDS011;10018;51.230;7.860;2022-10-16T08:06:51;2.90;;;1.63;;
19733;SDS011;10018;51.230;7.860;2022-10-16T08:09:17;3.60;;;1.33;;
19733;SDS011;10018;51.230;7.860;2022-10-16T08:11:42;5.17;;;1.60;;
19733;SDS011;10018;51.230;7.860;2022-10-16T08:14:08;4.47;;;1.43;;
19733;SDS011;10018;51.230;7.860;2022-10-16T08:16:33;2.57;;;1.40;;
19733;SDS011;10018;51.230;7.860;2022-10-16T08:18:59;1.80;;;1.23;;
19733;SDS011;10018;51.230;7.860;2022-10-16T08:21:24;2.20;;;1.20;;
19733;SDS011;10018;51.230;7.860;2022-10-16T08:23:50;4.57;;;1.50;;
19733;SDS011;10018;51.230;7.860;2022-10-16T08:26:15;2.40;;;1.10;;
19733;SDS011;10018;51.230;7.860;2022-10-16T08:28:41;2.30;;;1.30;;
19733;SDS011;10018;51.230;7.860;2022-10-16T08:31:11;2.53;;;1.23;;
19733;SDS011;10018;51.230;7.860;2022-10-16T08:33:38;2.03;;;1.40;;
19733;SDS011;10018;51.230;7.860;2022-10-16T08:36:06;4.73;;;1.43;;
19733;SDS011;10018;51.230;7.860;2022-10-16T08:38:31;3.80;;;1.40;;
19733;SDS011;10018;51.230;7.860;2022-10-16T08:41:17;1.90;;;1.00;;
19733;SDS011;10018;51.230;7.860;2022-10-16T08:44:16;2.17;;;1.27;;
19733;SDS011;10018;51.230;7.860;2022-10-16T08:47:08;2.53;;;1.10;;
19733;SDS011;10018;51.230;7.860;2022-10-16T08:49:44;2.07;;;1.00;;
19733;SDS011;10018;51.230;7.860;2022-10-16T08:52:29;2.67;;;1.10;;
19733;SDS011;10018;51.230;7.860;2022-10-16T08:54:58;6.83;;;1.10;;
19733;SDS011;10018;51.230;7.860;2022-10-16T08:57:25;1.93;;;1.20;;
19733;SDS011;10018;51.230;7.860;2022-10-16T08:59:55;1.23;;;0.93;;
19733;SDS011;10018;51.230;7.860;2022-10-16T09:02:37;1.93;;;1.07;;
19733;SDS011;10018;51.230;7.860;2022-10-16T09:05:36;1.60;;;0.97;;
19733;SDS011;10018;51.230;7.860;2022-10-16T09:10:50;2.10;;;1.27;;
19733;SDS011;10018;51.230;7.860;2022-10-16T09:13:40;3.13;;;1.30;;
19733;SDS011;10018;51.230;7.860;2022-10-16T09:19:04;2.00;;;1.10;;
19733;SDS011;10018;51.230;7.860;2022-10-16T09:21:44;3.33;;;1.07;;
19733;SDS011;10018;51.230;7.860;2022-10-16T09:24:19;3.70;;;1.10;;
19733;SDS011;10018;51.230;7.860;2022-10-16T09:26:46;2.70;;;1.33;;
19733;SDS011;10018;51.230;7.860;2022-10-16T09:29:16;2.43;;;1.20;;
19733;SDS011;10018;51.230;7.860;2022-10-16T09:31:45;2.23;;;1.20;;
19733;SDS011;10018;51.230;7.860;2022-10-16T09:34:15;3.00;;;0.93;;
19733;SDS011;10018;51.230;7.860;2022-10-16T09:36:51;3.07;;;1.10;;
19733;SDS011;10018;51.230;7.860;2022-10-16T09:39:17;2.63;;;1.30;;
19733;SDS011;10018;51.230;7.860;2022-10-16T09:41:43;2.50;;;1.20;;
19733;SDS011;10018;51.230;7.860;2022-10-16T09:44:21;5.90;;;1.10;;
19733;SDS011;10018;51.230;7.860;2022-10-16T09:46:48;3.70;;;1.00;;
19733;SDS011;10018;51.230;7.860;2022-10-16T09:49:24;5.00;;;1.20;;
19733;SDS011;10018;51.230;7.860;2022-10-16T09:51:51;3.63;;;1.10;;
19733;SDS011;10018;51.230;7.860;2022-10-16T09:54:27;2.53;;;1.10;;
19733;SDS011;10018;51.230;7.860;2022-10-16T09:56:52;4.27;;;1.23;;
19733;SDS011;10018;51.230;7.860;2022-10-16T09:59:30;5.70;;;1.00;;
19733;SDS011;10018;51.230;7.860;2022-10-16T10:01:56;2.50;;;1.00;;
19733;SDS011;10018;51.230;7.860;2022-10-16T10:04:36;4.63;;;1.00;;
19733;SDS011;10018;51.230;7.860;2022-10-16T10:07:04;2.50;;;1.00;;
19733;SDS011;10018;51.230;7.860;2022-10-16T10:09:34;3.57;;;1.57;;
19733;SDS011;10018;51.230;7.860;2022-10-16T10:12:15;3.90;;;0.90;;
19733;SDS011;10018;51.230;7.860;2022-10-16T10:14:45;3.30;;;1.10;;
19733;SDS011;10018;51.230;7.860;2022-10-16T10:22:24;5.27;;;0.80;;
19733;SDS011;10018;51.230;7.860;2022-10-16T10:30:38;3.20;;;0.80;;
19733;SDS011;10018;51.230;7.860;2022-10-16T10:35:57;1.77;;;0.70;;
19733;SDS011;10018;51.230;7.860;2022-10-16T10:44:11;3.80;;;0.80;;
19733;SDS011;10018;51.230;7.860;2022-10-16T10:46:46;2.57;;;0.90;;
19733;SDS011;10018;51.230;7.860;2022-10-16T10:52:09;3.80;;;0.80;;
19733;SDS011;10018;51.230;7.860;2022-10-16T11:06:01;2.27;;;0.50;;
19733;SDS011;10018;51.230;7.860;2022-10-16T11:08:36;2.67;;;0.50;;
19733;SDS011;10018;51.230;7.860;2022-10-16T11:11:14;2.33;;;0.50;;
19733;SDS011;10018;51.230;7.860;2022-10-16T11:13:53;1.63;;;0.60;;
19733;SDS011;10018;51.230;7.860;2022-10-16T11:16:40;2.10;;;0.60;;
19733;SDS011;10018;51.230;7.860;2022-10-16T11:19:14;2.23;;;0.60;;
19733;SDS011;10018;51.230;7.860;2022-10-16T11:27:47;2.30;;;0.40;;
19733;SDS011;10018;51.230;7.860;2022-10-16T11:30:21;2.20;;;0.40;;
19733;SDS011;10018;51.230;7.860;2022-10-16T11:33:04;1.87;;;0.50;;
19733;SDS011;10018;51.230;7.860;2022-10-16T11:38:02;5.40;;;0.70;;
19733;SDS011;10018;51.230;7.860;2022-10-16T11:40:37;1.73;;;0.50;;
19733;SDS011;10018;51.230;7.860;2022-10-16T11:43:10;0.70;;;0.50;;
19733;SDS011;10018;51.230;7.860;2022-10-16T11:45:50;1.70;;;0.43;;
19733;SDS011;10018;51.230;7.860;2022-10-16T11:51:25;2.00;;;0.40;;
19733;SDS011;10018;51.230;7.860;2022-10-16T11:56:43;1.83;;;0.50;;
19733;SDS011;10018;51.230;7.860;2022-10-16T11:59:20;1.43;;;0.50;;
19733;SDS011;10018;51.230;7.860;2022-10-16T12:01:59;1.53;;;0.50;;
19733;SDS011;10018;51.230;7.860;2022-10-16T12:08:09;1.83;;;0.50;;
19733;SDS011;10018;51.230;7.860;2022-10-16T12:10:41;8.33;;;0.67;;
19733;SDS011;10018;51.230;7.860;2022-10-16T12:16:05;1.00;;;0.37;;
19733;SDS011;10018;51.230;7.860;2022-10-16T12:18:31;0.70;;;0.30;;
19733;SDS011;10018;51.230;7.860;2022-10-16T12:20:57;3.30;;;0.60;;
19733;SDS011;10018;51.230;7.860;2022-10-16T12:23:29;2.80;;;0.60;;
19733;SDS011;10018;51.230;7.860;2022-10-16T12:25:55;2.03;;;0.50;;
19733;SDS011;10018;51.230;7.860;2022-10-16T12:28:22;1.97;;;0.50;;
19733;SDS011;10018;51.230;7.860;2022-10-16T12:30:56;0.70;;;0.40;;
19733;SDS011;10018;51.230;7.860;2022-10-16T12:35:51;1.10;;;0.60;;
19733;SDS011;10018;51.230;7.860;2022-10-16T12:38:19;1.30;;;0.40;;
19733;SDS011;10018;51.230;7.860;2022-10-16T12:41:24;3.87;;;0.43;;
19733;SDS011;10018;51.230;7.860;2022-10-16T12:43:52;0.70;;;0.40;;
19733;SDS011;10018;51.230;7.860;2022-10-16T12:48:44;1.63;;;0.50;;
19733;SDS011;10018;51.230;7.860;2022-10-16T12:51:11;1.60;;;0.60;;
19733;SDS011;10018;51.230;7.860;2022-10-16T12:53:46;1.90;;;0.60;;
19733;SDS011;10018;51.230;7.860;2022-10-16T13:07:51;5.07;;;0.63;;
19733;SDS011;10018;51.230;7.860;2022-10-16T13:18:25;0.87;;;0.43;;
19733;SDS011;10018;51.230;7.860;2022-10-16T13:23:45;2.73;;;1.50;;
19733;SDS011;10018;51.230;7.860;2022-10-16T13:28:47;1.77;;;0.70;;
19733;SDS011;10018;51.230;7.860;2022-10-16T13:31:14;4.80;;;0.60;;
19733;SDS011;10018;51.230;7.860;2022-10-16T13:33:45;1.20;;;0.50;;
19733;SDS011;10018;51.230;7.860;2022-10-16T13:36:19;5.67;;;0.67;;
19733;SDS011;10018;51.230;7.860;2022-10-16T13:38:58;3.77;;;0.60;;
19733;SDS011;10018;51.230;7.860;2022-10-16T13:41:31;3.70;;;0.77;;
19733;SDS011;10018;51.230;7.860;2022-10-16T13:43:56;4.63;;;0.60;;
19733;SDS011;10018;51.230;7.860;2022-10-16T13:46:23;2.40;;;0.60;;
19733;SDS011;10018;51.230;7.860;2022-10-16T13:49:06;2.90;;;0.70;;
19733;SDS011;10018;51.230;7.860;2022-10-16T13:51:40;1.33;;;0.50;;
19733;SDS011;10018;51.230;7.860;2022-10-16T13:54:07;5.17;;;0.80;;
19733;SDS011;10018;51.230;7.860;2022-10-16T13:56:38;3.47;;;0.80;;
19733;SDS011;10018;51.230;7.860;2022-10-16T13:59:06;2.13;;;0.70;;
19733;SDS011;10018;51.230;7.860;2022-10-16T14:01:48;0.97;;;0.53;;
19733;SDS011;10018;51.230;7.860;2022-10-16T14:04:15;4.00;;;0.70;;
19733;SDS011;10018;51.230;7.860;2022-10-16T14:06:42;3.83;;;0.60;;
19733;SDS011;10018;51.230;7.860;2022-10-16T14:09:14;3.73;;;0.80;;
19733;SDS011;10018;51.230;7.860;2022-10-16T14:11:49;1.73;;;0.63;;
19733;SDS011;10018;51.230;7.860;2022-10-16T14:14:21;2.93;;;0.77;;
19733;SDS011;10018;51.230;7.860;2022-10-16T14:16:48;1.60;;;0.50;;
19733;SDS011;10018;51.230;7.860;2022-10-16T14:19:21;1.97;;;0.40;;
19733;SDS011;10018;51.230;7.860;2022-10-16T14:21:50;1.40;;;0.67;;
19733;SDS011;10018;51.230;7.860;2022-10-16T14:26:52;2.90;;;0.63;;
19733;SDS011;10018;51.230;7.860;2022-10-16T14:29:21;2.03;;;0.60;;
19733;SDS011;10018;51.230;7.860;2022-10-16T14:31:57;6.17;;;0.60;;
19733;SDS011;10018;51.230;7.860;2022-10-16T14:34:32;2.37;;;0.53;;
19733;SDS011;10018;51.230;7.860;2022-10-16T14:39:50;9.07;;;0.70;;
19733;SDS011;10018;51.230;7.860;2022-10-16T14:42:17;1.30;;;0.63;;
19733;SDS011;10018;51.230;7.860;2022-10-16T14:44:44;8.73;;;0.70;;
19733;SDS011;10018;51.230;7.860;2022-10-16T14:47:13;1.50;;;0.60;;
19733;SDS011;10018;51.230;7.860;2022-10-16T14:49:41;0.80;;;0.50;;
19733;SDS011;10018;51.230;7.860;2022-10-16T14:52:11;1.97;;;0.40;;
19733;SDS011;10018;51.230;7.860;2022-10-16T14:54:37;2.20;;;0.60;;
19733;SDS011;10018;51.230;7.860;2022-10-16T14:57:03;0.67;;;0.43;;
19733;SDS011;10018;51.230;7.860;2022-10-16T14:59:39;2.13;;;0.50;;
19733;SDS011;10018;51.230;7.860;2022-10-16T15:02:51;1.73;;;0.50;;
19733;SDS011;10018;51.230;7.860;2022-10-16T15:04:56;3.27;;;0.60;;
19733;SDS011;10018;51.230;7.860;2022-10-16T15:07:22;2.57;;;0.63;;
19733;SDS011;10018;51.230;7.860;2022-10-16T15:09:48;1.23;;;0.60;;
19733;SDS011;10018;51.230;7.860;2022-10-16T15:12:13;1.20;;;0.70;;
19733;SDS011;10018;51.230;7.860;2022-10-16T15:14:39;2.50;;;0.60;;
19733;SDS011;10018;51.230;7.860;2022-10-16T15:17:04;2.80;;;0.60;;
19733;SDS011;10018;51.230;7.860;2022-10-16T15:19:30;1.60;;;0.60;;
19733;SDS011;10018;51.230;7.860;2022-10-16T15:21:55;2.17;;;0.80;;
19733;SDS011;10018;51.230;7.860;2022-10-16T15:24:21;4.53;;;0.80;;
19733;SDS011;10018;51.230;7.860;2022-10-16T15:26:47;2.47;;;0.60;;
19733;SDS011;10018;51.230;7.860;2022-10-16T15:29:13;6.43;;;0.80;;
19733;SDS011;10018;51.230;7.860;2022-10-16T15:31:39;3.17;;;0.73;;
19733;SDS011;10018;51.230;7.860;2022-10-16T15:34:07;1.43;;;0.60;;
19733;SDS011;10018;51.230;7.860;2022-10-16T15:36:35;3.97;;;1.60;;
19733;SDS011;10018;51.230;7.860;2022-10-16T15:39:02;4.47;;;0.90;;
19733;SDS011;10018;51.230;7.860;2022-10-16T15:41:29;3.83;;;0.70;;
19733;SDS011;10018;51.230;7.860;2022-10-16T15:43:55;1.97;;;0.77;;
19733;SDS011;10018;51.230;7.860;2022-10-16T15:46:21;3.90;;;1.00;;
19733;SDS011;10018;51.230;7.860;2022-10-16T15:48:48;11.07;;;1.00;;
19733;SDS011;10018;51.230;7.860;2022-10-16T15:51:14;4.50;;;1.03;;
19733;SDS011;10018;51.230;7.860;2022-10-16T15:53:40;2.77;;;0.90;;
19733;SDS011;10018;51.230;7.860;2022-10-16T15:56:07;4.10;;;1.10;;
19733;SDS011;10018;51.230;7.860;2022-10-16T15:58:33;2.63;;;1.10;;
19733;SDS011;10018;51.230;7.860;2022-10-16T16:00:59;2.03;;;1.03;;
19733;SDS011;10018;51.230;7.860;2022-10-16T16:03:26;4.97;;;1.00;;
19733;SDS011;10018;51.230;7.860;2022-10-16T16:05:52;2.43;;;0.90;;
19733;SDS011;10018;51.230;7.860;2022-10-16T16:08:18;2.70;;;0.90;;
19733;SDS011;10018;51.230;7.860;2022-10-16T16:10:45;2.47;;;0.90;;
19733;SDS011;10018;51.230;7.860;2022-10-16T16:13:10;3.10;;;1.00;;
19733;SDS011;10018;51.230;7.860;2022-10-16T16:15:39;11.00;;;1.30;;
19733;SDS011;10018;51.230;7.860;2022-10-16T16:18:05;5.17;;;1.60;;
19733;SDS011;10018;51.230;7.860;2022-10-16T16:20:31;18.80;;;10.43;;
19733;SDS011;10018;51.230;7.860;2022-10-16T16:22:57;15.37;;;7.20;;
19733;SDS011;10018;51.230;7.860;2022-10-16T16:25:22;9.40;;;4.30;;
19733;SDS011;10018;51.230;7.860;2022-10-16T16:27:48;6.90;;;4.13;;
19733;SDS011;10018;51.230;7.860;2022-10-16T16:30:13;14.83;;;9.63;;
19733;SDS011;10018;51.230;7.860;2022-10-16T16:32:39;27.20;;;19.00;;
19733;SDS011;10018;51.230;7.860;2022-10-16T16:35:05;21.87;;;16.57;;
19733;SDS011;10018;51.230;7.860;2022-10-16T16:37:31;11.17;;;7.30;;
19733;SDS011;10018;51.230;7.860;2022-10-16T16:39:56;39.23;;;28.77;;
19733;SDS011;10018;51.230;7.860;2022-10-16T16:42:23;18.47;;;11.37;;
19733;SDS011;10018;51.230;7.860;2022-10-16T16:44:50;11.50;;;5.20;;